createdAt,value
2023-02-28T01:24:00.215Z,101501.00
2023-02-28T01:26:28.065Z,101498.69
2023-02-28T01:28:56.118Z,101498.63
2023-02-28T01:31:24.731Z,101495.22
2023-02-28T01:33:52.421Z,101495.56
2023-02-28T01:36:21.756Z,101496.75
2023-02-28T01:38:50.168Z,101491.13
2023-02-28T01:41:22.006Z,101495.78
2023-02-28T01:43:58.905Z,101491.59
2023-02-28T01:46:27.152Z,101499.91
2023-02-28T01:48:59.095Z,101499.81
2023-02-28T01:51:31.992Z,101495.47
2023-02-28T01:54:03.953Z,101493.53
2023-02-28T01:56:38.195Z,101486.03
2023-02-28T01:59:07.039Z,101493.22
2023-02-28T02:01:35.852Z,101478.09
2023-02-28T02:04:05.814Z,101485.34
2023-02-28T02:06:40.240Z,101476.56
2023-02-28T02:09:11.499Z,101475.72
2023-02-28T02:11:42.950Z,101479.63
2023-02-28T02:14:33.460Z,101475.66
2023-02-28T02:17:16.984Z,101473.84
2023-02-28T02:20:40.128Z,101471.31
2023-02-28T02:23:37.197Z,101473.09
2023-02-28T02:26:38.028Z,101477.38
2023-02-28T02:29:32.012Z,101463.84
2023-02-28T02:32:24.513Z,101466.59
2023-02-28T02:35:10.198Z,101464.78
2023-02-28T02:37:43.084Z,101467.94
2023-02-28T02:40:16.768Z,101459.56
2023-02-28T02:42:52.504Z,101466.88
2023-02-28T02:45:26.609Z,101463.28
2023-02-28T02:47:57.516Z,101468.50
2023-02-28T02:50:31.437Z,101464.97
2023-02-28T02:53:03.268Z,101463.22
2023-02-28T02:55:37.315Z,101458.22
2023-02-28T02:58:08.120Z,101461.75
2023-02-28T03:00:42.176Z,101457.00
2023-02-28T03:03:13.930Z,101464.31
2023-02-28T03:05:48.251Z,101459.91
2023-02-28T03:08:17.193Z,101467.56
2023-02-28T03:10:47.599Z,101465.16
2023-02-28T03:13:39.695Z,101467.97
2023-02-28T03:16:27.760Z,101462.00
2023-02-28T03:19:03.435Z,101466.97
2023-02-28T03:21:42.102Z,101469.13
2023-02-28T03:24:14.268Z,101465.81
2023-02-28T03:26:47.202Z,101463.78
2023-02-28T03:29:20.181Z,101474.19
2023-02-28T03:31:54.344Z,101462.00
2023-02-28T03:34:28.453Z,101466.88
2023-02-28T03:37:01.230Z,101468.31
2023-02-28T03:39:34.041Z,101464.72
2023-02-28T03:42:06.153Z,101459.75
2023-02-28T03:44:38.509Z,101465.56
2023-02-28T03:47:11.985Z,101457.94
2023-02-28T03:49:47.018Z,101462.31
2023-02-28T03:52:19.432Z,101464.03
2023-02-28T03:54:52.485Z,101466.31
2023-02-28T03:57:27.748Z,101471.53
2023-02-28T04:00:01.199Z,101476.47
2023-02-28T04:02:34.162Z,101480.97
2023-02-28T04:05:02.925Z,101481.41
2023-02-28T04:07:32.835Z,101488.19
2023-02-28T04:10:01.362Z,101479.19
2023-02-28T04:12:29.280Z,101476.31
2023-02-28T04:14:56.982Z,101479.78
2023-02-28T04:17:24.616Z,101484.59
2023-02-28T04:19:52.341Z,101480.69
2023-02-28T04:22:20.190Z,101472.47
2023-02-28T04:24:50.327Z,101471.34
2023-02-28T04:27:18.098Z,101472.47
2023-02-28T04:29:46.161Z,101475.00
2023-02-28T04:32:15.160Z,101467.44
2023-02-28T04:34:43.242Z,101461.59
2023-02-28T04:37:13.684Z,101462.44
2023-02-28T04:39:43.274Z,101468.09
2023-02-28T04:42:13.926Z,101466.03
2023-02-28T04:44:42.302Z,101461.97
2023-02-28T04:47:10.093Z,101460.00
2023-02-28T04:49:38.103Z,101461.69
2023-02-28T04:52:06.072Z,101463.59
2023-02-28T04:54:33.853Z,101464.59
2023-02-28T04:57:02.469Z,101468.75
2023-02-28T04:59:31.584Z,101464.72
2023-02-28T05:01:59.367Z,101467.84
2023-02-28T05:04:27.188Z,101474.44
2023-02-28T05:06:56.367Z,101475.50
2023-02-28T05:09:24.153Z,101473.91
2023-02-28T05:11:52.102Z,101476.31
2023-02-28T05:14:20.484Z,101476.06
2023-02-28T05:16:49.460Z,101472.34
2023-02-28T05:19:17.980Z,101474.38
2023-02-28T05:21:53.886Z,101476.53
2023-02-28T05:24:23.660Z,101487.59
2023-02-28T05:26:54.479Z,101486.09
2023-02-28T05:29:22.858Z,101482.91
2023-02-28T05:31:52.040Z,101485.06
2023-02-28T05:34:20.176Z,101478.28
2023-02-28T05:36:48.173Z,101487.97
2023-02-28T05:39:16.047Z,101490.34
2023-02-28T05:41:44.560Z,101482.28
2023-02-28T05:44:13.825Z,101498.56
2023-02-28T05:46:42.150Z,101498.44
2023-02-28T05:49:11.357Z,101491.97
2023-02-28T05:51:41.066Z,101499.31
2023-02-28T05:54:09.239Z,101500.19
2023-02-28T05:56:38.767Z,101502.78
2023-02-28T05:59:06.603Z,101504.63
2023-02-28T06:01:36.781Z,101502.56
2023-02-28T06:04:06.583Z,101502.69
2023-02-28T06:06:37.294Z,101507.97
2023-02-28T06:09:06.250Z,101516.88
2023-02-28T06:11:34.597Z,101513.56
2023-02-28T06:14:02.814Z,101515.38
2023-02-28T06:16:31.962Z,101509.47
2023-02-28T06:19:01.700Z,101522.06
2023-02-28T06:21:30.395Z,101526.44
2023-02-28T06:24:01.250Z,101520.41
2023-02-28T06:26:29.106Z,101519.66
2023-02-28T06:28:57.767Z,101518.22
2023-02-28T06:31:27.051Z,101523.09
2023-02-28T06:33:54.929Z,101522.28
2023-02-28T06:36:23.536Z,101526.63
2023-02-28T06:38:55.619Z,101526.69
2023-02-28T06:41:26.347Z,101530.38
2023-02-28T06:43:55.100Z,101530.44
2023-02-28T06:46:23.960Z,101533.38
2023-02-28T06:48:52.069Z,101527.72
2023-02-28T06:51:23.086Z,101531.94
2023-02-28T06:53:50.898Z,101532.97
2023-02-28T06:56:21.173Z,101537.69
2023-02-28T06:58:53.683Z,101541.16
2023-02-28T07:01:23.857Z,101547.97
2023-02-28T07:03:53.138Z,101546.59
2023-02-28T07:06:21.790Z,101553.06
2023-02-28T07:08:49.781Z,101549.34
2023-02-28T07:11:18.026Z,101548.41
2023-02-28T07:13:45.911Z,101554.63
2023-02-28T07:16:15.303Z,101554.34
2023-02-28T07:18:43.162Z,101563.16
2023-02-28T07:21:12.477Z,101554.16
2023-02-28T07:23:42.036Z,101557.75
2023-02-28T07:26:15.859Z,101550.81
2023-02-28T07:28:45.124Z,101560.00
2023-02-28T07:31:16.578Z,101565.22
2023-02-28T07:33:46.839Z,101557.84
2023-02-28T07:36:19.503Z,101548.97
2023-02-28T07:38:51.157Z,101552.78
2023-02-28T07:41:22.225Z,101546.03
2023-02-28T07:43:50.176Z,101559.47
2023-02-28T07:46:23.250Z,101545.28
2023-02-28T07:48:52.244Z,101556.19
2023-02-28T07:51:23.171Z,101549.53
2023-02-28T07:53:52.023Z,101548.22
2023-02-28T07:56:30.217Z,101551.66
2023-02-28T07:59:11.108Z,101551.56
2023-02-28T08:01:46.322Z,101548.31
2023-02-28T08:04:16.793Z,101553.56
2023-02-28T08:06:47.920Z,101556.31
2023-02-28T08:09:20.390Z,101554.66
2023-02-28T08:11:54.713Z,101551.41
2023-02-28T08:14:24.004Z,101546.72
2023-02-28T08:16:54.471Z,101554.38
2023-02-28T08:19:24.140Z,101549.69
2023-02-28T08:22:01.835Z,101544.59
2023-02-28T08:24:43.274Z,101545.28
2023-02-28T08:27:14.967Z,101542.06
2023-02-28T08:29:47.308Z,101534.59
2023-02-28T08:32:29.461Z,101527.22
2023-02-28T08:34:58.753Z,101529.34
2023-02-28T08:37:28.863Z,101524.34
2023-02-28T08:39:56.797Z,101528.00
2023-02-28T08:42:28.984Z,101515.28
2023-02-28T08:45:03.687Z,101518.97
2023-02-28T08:47:37.306Z,101514.41
2023-02-28T08:50:09.212Z,101510.28
2023-02-28T08:52:39.812Z,101517.84
2023-02-28T08:55:11.904Z,101514.53
2023-02-28T08:57:42.916Z,101520.47
2023-02-28T09:00:14.845Z,101517.94
2023-02-28T09:02:44.880Z,101517.25
2023-02-28T09:05:13.821Z,101521.19
2023-02-28T09:07:42.127Z,101522.84
2023-02-28T09:10:12.630Z,101521.38
2023-02-28T09:12:42.006Z,101518.69
2023-02-28T09:15:11.598Z,101521.38
2023-02-28T09:17:42.446Z,101519.81
2023-02-28T09:20:14.305Z,101513.75
2023-02-28T09:22:42.052Z,101513.94
2023-02-28T09:25:10.049Z,101513.13
2023-02-28T09:27:38.102Z,101505.44
2023-02-28T09:30:06.666Z,101505.38
2023-02-28T09:32:34.518Z,101503.81
2023-02-28T09:35:02.176Z,101503.81
2023-02-28T09:37:32.298Z,101505.63
2023-02-28T09:40:01.843Z,101498.75
2023-02-28T09:42:34.569Z,101497.91
2023-02-28T09:45:06.350Z,101494.47
2023-02-28T09:47:38.449Z,101497.09
2023-02-28T09:50:19.536Z,101498.06
2023-02-28T09:52:50.976Z,101498.13
2023-02-28T09:55:24.971Z,101495.50
2023-02-28T09:57:54.627Z,101493.75
2023-02-28T10:00:26.828Z,101488.84
2023-02-28T10:03:14.530Z,101491.41
2023-02-28T10:05:50.961Z,101494.81
2023-02-28T10:08:26.284Z,101483.75
2023-02-28T10:10:58.311Z,101483.03
2023-02-28T10:13:34.603Z,101479.59
2023-02-28T10:16:09.882Z,101468.44
2023-02-28T10:18:45.803Z,101465.81
2023-02-28T10:21:22.714Z,101455.53
2023-02-28T10:24:01.327Z,101455.50
2023-02-28T10:26:32.894Z,101449.50
2023-02-28T10:29:00.779Z,101454.69
2023-02-28T10:31:28.805Z,101447.78
2023-02-28T10:33:57.994Z,101438.34
2023-02-28T10:36:26.033Z,101449.56
2023-02-28T10:38:56.424Z,101443.53
2023-02-28T10:41:35.629Z,101438.34
2023-02-28T10:44:22.406Z,101435.81
2023-02-28T10:46:50.794Z,101439.22
2023-02-28T10:49:23.014Z,101430.66
2023-02-28T10:51:55.826Z,101432.34
2023-02-28T10:54:29.290Z,101434.09
2023-02-28T10:57:09.938Z,101428.94
2023-02-28T10:59:37.697Z,101423.72
2023-02-28T11:05:29.698Z,101427.13
2023-02-28T11:08:01.354Z,101421.06
2023-02-28T11:10:35.538Z,101421.06
2023-02-28T11:13:04.604Z,101413.22
2023-02-28T11:15:34.786Z,101407.16
2023-02-28T11:18:07.056Z,101421.94
2023-02-28T11:20:36.176Z,101412.38
2023-02-28T11:23:06.314Z,101405.41
2023-02-28T11:25:38.990Z,101401.06
2023-02-28T11:28:08.483Z,101412.25
2023-02-28T11:30:38.397Z,101407.16
2023-02-28T11:33:28.158Z,101404.59
2023-02-28T11:36:00.865Z,101402.81
2023-02-28T11:38:29.641Z,101405.44
2023-02-28T11:41:25.067Z,101394.91
2023-02-28T11:44:05.935Z,101400.31
2023-02-28T11:46:41.290Z,101389.78
2023-02-28T11:49:21.789Z,101394.88
2023-02-28T11:51:56.312Z,101404.25
2023-02-28T11:54:37.731Z,101389.03
2023-02-28T11:57:20.832Z,101393.19
2023-02-28T12:00:02.942Z,101377.75
2023-02-28T12:02:55.282Z,101368.78
2023-02-28T12:05:33.822Z,101369.44
2023-02-28T12:08:17.896Z,101386.72
2023-02-28T12:10:59.465Z,101367.44
2023-02-28T12:13:38.672Z,101349.66
2023-02-28T12:16:33.305Z,101360.75
2023-02-28T12:19:13.018Z,101359.00
2023-02-28T12:21:57.735Z,101351.50
2023-02-28T12:24:53.228Z,101357.88
2023-02-28T12:27:26.505Z,101356.41
2023-02-28T12:30:00.635Z,101388.97
2023-02-28T12:32:33.852Z,101392.44
2023-02-28T12:35:09.387Z,101381.91
2023-02-28T12:37:44.085Z,101384.28
2023-02-28T12:40:15.057Z,101390.34
2023-02-28T12:42:47.109Z,101392.50
2023-02-28T12:45:21.646Z,101385.47
2023-02-28T12:47:55.247Z,101389.13
2023-02-28T12:50:26.135Z,101392.38
2023-02-28T12:53:01.300Z,101389.50
2023-02-28T12:55:37.390Z,101393.59
2023-02-28T12:58:16.662Z,101392.13
2023-02-28T13:01:02.895Z,101377.06
2023-02-28T13:03:51.627Z,101379.81
2023-02-28T13:06:31.125Z,101385.22
2023-02-28T13:09:05.559Z,101373.50
2023-02-28T13:11:36.197Z,101378.31
2023-02-28T13:14:06.881Z,101381.56
2023-02-28T13:16:57.878Z,101386.22
2023-02-28T13:19:27.509Z,101382.09
2023-02-28T13:21:57.411Z,101381.88
2023-02-28T13:24:45.789Z,101384.88
2023-02-28T13:27:25.565Z,101381.53
2023-02-28T13:29:55.400Z,101377.81
2023-02-28T13:32:45.485Z,101373.44
2023-02-28T13:35:32.236Z,101363.84
2023-02-28T13:38:18.932Z,101379.50
2023-02-28T13:40:48.732Z,101374.19
2023-02-28T13:43:34.552Z,101381.16
2023-02-28T13:46:13.941Z,101378.72
2023-02-28T13:48:44.620Z,101381.47
2023-02-28T13:51:43.190Z,101379.66
2023-02-28T13:54:38.477Z,101375.50
2023-02-28T13:57:21.909Z,101378.41
2023-02-28T14:00:13.097Z,101389.03
2023-02-28T14:03:00.722Z,101394.50
2023-02-28T14:05:30.715Z,101381.41
2023-02-28T14:08:00.606Z,101383.03
2023-02-28T14:10:33.504Z,101389.22
2023-02-28T14:13:14.957Z,101381.31
2023-02-28T14:15:48.202Z,101391.78
2023-02-28T14:18:24.208Z,101381.31
2023-02-28T14:20:59.448Z,101377.22
2023-02-28T14:23:40.324Z,101382.38
2023-02-28T14:26:18.340Z,101380.41
2023-02-28T14:28:57.557Z,101369.34
2023-02-28T14:31:31.443Z,101378.94
2023-02-28T14:34:19.419Z,101378.00
2023-02-28T14:36:51.928Z,101379.59
2023-02-28T14:39:24.264Z,101372.56
2023-02-28T14:41:53.354Z,101375.28
2023-02-28T14:44:24.293Z,101377.25
2023-02-28T14:46:56.553Z,101373.75
2023-02-28T14:49:30.776Z,101383.41
2023-02-28T14:52:10.646Z,101374.81
2023-02-28T14:54:40.537Z,101377.38
2023-02-28T14:57:22.197Z,101375.66
2023-02-28T15:00:01.691Z,101374.84
2023-02-28T15:02:37.136Z,101373.75
2023-02-28T15:05:29.390Z,101379.19
2023-02-28T15:08:07.364Z,101368.69
2023-02-28T15:10:36.151Z,101368.75
2023-02-28T15:13:07.871Z,101363.50
2023-02-28T15:16:01.235Z,101351.50
2023-02-28T15:18:36.232Z,101358.44
2023-02-28T15:21:08.977Z,101361.28
2023-02-28T15:23:39.007Z,101369.88
2023-02-28T15:26:07.716Z,101369.88
2023-02-28T15:28:36.477Z,101364.78
2023-02-28T15:31:23.808Z,101365.78
2023-02-28T15:33:56.844Z,101366.69
2023-02-28T15:36:31.167Z,101376.13
2023-02-28T15:39:14.229Z,101383.94
2023-02-28T15:41:44.342Z,101380.50
2023-02-28T15:44:28.070Z,101377.13
2023-02-28T15:47:02.360Z,101370.22
2023-02-28T15:49:42.588Z,101384.91
2023-02-28T15:52:17.442Z,101380.59
2023-02-28T15:54:47.141Z,101384.13
2023-02-28T15:57:19.338Z,101384.06
2023-02-28T15:59:56.350Z,101380.56
2023-02-28T16:02:33.053Z,101378.94
2023-02-28T16:05:05.055Z,101391.91
2023-02-28T16:07:35.136Z,101390.22
2023-02-28T16:10:03.730Z,101388.47
2023-02-28T16:12:34.113Z,101396.22
2023-02-28T16:15:05.673Z,101395.41
2023-02-28T16:17:37.009Z,101393.69
2023-02-28T16:20:14.943Z,101398.84
2023-02-28T16:22:44.188Z,101401.41
2023-02-28T16:25:14.517Z,101398.81
2023-02-28T16:27:43.855Z,101404.84
2023-02-28T16:30:20.156Z,101404.88
2023-02-28T16:32:49.005Z,101404.88
2023-02-28T16:35:18.775Z,101407.44
2023-02-28T16:37:48.846Z,101408.31
2023-02-28T16:40:18.162Z,101405.72
2023-02-28T16:42:48.241Z,101405.75
2023-02-28T16:45:20.118Z,101407.47
2023-02-28T16:47:52.391Z,101405.75
2023-02-28T16:50:22.897Z,101408.34
2023-02-28T16:52:55.730Z,101405.75
2023-02-28T16:55:25.621Z,101416.06
2023-02-28T16:57:57.721Z,101416.94
2023-02-28T17:00:27.188Z,101423.78
2023-02-28T17:02:56.710Z,101417.78
2023-02-28T17:05:26.703Z,101426.34
2023-02-28T17:07:56.890Z,101422.09
2023-02-28T17:10:27.377Z,101430.66
2023-02-28T17:13:06.131Z,101433.22
2023-02-28T17:15:41.840Z,101438.34
2023-02-28T17:18:15.598Z,101440.94
2023-02-28T17:20:43.660Z,101446.06
2023-02-28T17:23:13.297Z,101450.34
2023-02-28T17:25:40.951Z,101460.63
2023-02-28T17:28:08.714Z,101464.06
2023-02-28T17:30:37.005Z,101468.31
2023-02-28T17:33:04.766Z,101471.75
2023-02-28T17:35:32.440Z,101476.91
2023-02-28T17:38:00.276Z,101475.16
2023-02-28T17:40:29.621Z,101481.19
2023-02-28T17:42:57.941Z,101480.28
2023-02-28T17:45:26.042Z,101491.41
2023-02-28T17:47:54.465Z,101493.09
2023-02-28T17:50:24.044Z,101489.66
2023-02-28T17:52:52.234Z,101487.94
2023-02-28T17:55:20.909Z,101487.91
2023-02-28T17:57:50.255Z,101493.88
2023-02-28T18:00:19.492Z,101496.44
2023-02-28T18:02:47.829Z,101487.88
2023-02-28T18:05:15.625Z,101487.03
2023-02-28T18:07:43.308Z,101493.00
2023-02-28T18:10:20.212Z,101497.25
2023-02-28T18:12:50.677Z,101493.81
2023-02-28T18:15:20.945Z,101500.59
2023-02-28T18:17:49.361Z,101503.94
2023-02-28T18:20:17.606Z,101503.03
2023-02-28T18:22:46.070Z,101500.69
2023-02-28T18:25:17.198Z,101506.53
2023-02-28T18:27:58.087Z,101500.47
2023-02-28T18:30:30.698Z,101504.75
2023-02-28T18:32:59.586Z,101505.56
2023-02-28T18:35:36.950Z,101503.09
2023-02-28T18:38:09.058Z,101502.94
2023-02-28T18:40:37.353Z,101506.28
2023-02-28T18:43:05.901Z,101499.56
2023-02-28T18:45:37.143Z,101503.94
2023-02-28T18:48:05.184Z,101508.91
2023-02-28T18:50:33.258Z,101503.66
2023-02-28T18:53:03.457Z,101507.97
2023-02-28T18:55:32.416Z,101513.81
2023-02-28T18:58:01.323Z,101511.44
2023-02-28T19:00:29.557Z,101501.97
2023-02-28T19:02:59.787Z,101509.50
2023-02-28T19:05:28.487Z,101516.31
2023-02-28T19:07:57.184Z,101508.59
2023-02-28T19:10:24.891Z,101512.91
2023-02-28T19:12:53.214Z,101514.59
2023-02-28T19:15:21.406Z,101518.84
2023-02-28T19:17:49.560Z,101522.19
2023-02-28T19:20:19.860Z,101517.06
2023-02-28T19:22:47.722Z,101516.13
2023-02-28T19:25:15.427Z,101519.41
2023-02-28T19:27:43.383Z,101520.25
2023-02-28T19:30:12.656Z,101520.28
2023-02-28T19:32:40.448Z,101520.97
2023-02-28T19:35:09.148Z,101525.25
2023-02-28T19:37:39.961Z,101523.47
2023-02-28T19:40:10.015Z,101526.91
2023-02-28T19:42:38.578Z,101528.69
2023-02-28T19:45:09.916Z,101519.41
2023-02-28T19:47:38.322Z,101520.22
2023-02-28T19:50:09.156Z,101526.19
2023-02-28T19:52:36.867Z,101527.81
2023-02-28T19:55:07.088Z,101518.59
2023-02-28T19:57:34.853Z,101519.28
2023-02-28T20:00:02.730Z,101527.00
2023-02-28T20:02:40.290Z,101522.75
2023-02-28T20:05:09.463Z,101525.44
2023-02-28T20:07:37.401Z,101518.53
2023-02-28T20:10:07.672Z,101521.84
2023-02-28T20:12:35.513Z,101526.91
2023-02-28T20:15:03.304Z,101523.47
2023-02-28T20:17:31.436Z,101525.81
2023-02-28T20:19:59.181Z,101530.16
2023-02-28T20:22:26.926Z,101525.03
2023-02-28T20:24:55.360Z,101531.72
2023-02-28T20:27:24.603Z,101529.03
2023-02-28T20:29:53.340Z,101534.81
2023-02-28T20:32:21.853Z,101531.25
2023-02-28T20:34:49.527Z,101531.28
2023-02-28T20:37:17.222Z,101528.69
2023-02-28T20:39:45.000Z,101530.28
2023-02-28T20:42:12.755Z,101524.78
2023-02-28T20:44:41.909Z,101532.28
2023-02-28T20:47:09.994Z,101533.38
2023-02-28T20:49:37.982Z,101529.28
2023-02-28T20:52:05.716Z,101526.50
2023-02-28T20:54:35.121Z,101530.66
2023-02-28T20:57:02.856Z,101529.91
2023-02-28T20:59:30.729Z,101519.13
2023-02-28T21:01:59.858Z,101532.84
2023-02-28T21:04:27.800Z,101525.94
2023-02-28T21:06:56.269Z,101533.38
2023-02-28T21:09:24.204Z,101533.38
2023-02-28T21:11:54.867Z,101521.69
2023-02-28T21:14:23.908Z,101524.72
2023-02-28T21:16:51.996Z,101533.94
2023-02-28T21:19:21.739Z,101532.47
2023-02-28T21:21:49.794Z,101525.03
2023-02-28T21:24:20.263Z,101528.47
2023-02-28T21:26:48.598Z,101525.94
2023-02-28T21:29:16.323Z,101523.28
2023-02-28T21:31:44.149Z,101525.84
2023-02-28T21:34:13.870Z,101521.31
2023-02-28T21:36:47.173Z,101522.09
2023-02-28T21:39:16.999Z,101526.31
2023-02-28T21:41:44.928Z,101521.88
2023-02-28T21:44:18.168Z,101527.66
2023-02-28T21:46:47.065Z,101532.59
2023-02-28T21:49:15.401Z,101529.09
2023-02-28T21:51:44.439Z,101529.06
2023-02-28T21:54:13.340Z,101528.38
2023-02-28T21:56:41.202Z,101532.59
2023-02-28T21:59:11.198Z,101524.78
2023-02-28T22:01:40.517Z,101537.59
2023-02-28T22:04:10.427Z,101533.22
2023-02-28T22:06:39.595Z,101534.19
2023-02-28T22:09:10.529Z,101534.84
2023-02-28T22:11:39.380Z,101537.13
2023-02-28T22:14:11.380Z,101531.09
2023-02-28T22:16:51.456Z,101527.66
2023-02-28T22:19:21.397Z,101532.59
2023-02-28T22:21:52.217Z,101537.81
2023-02-28T22:24:24.238Z,101530.94
2023-02-28T22:26:53.145Z,101535.28
2023-02-28T22:29:21.396Z,101540.28
2023-02-28T22:31:49.304Z,101546.19
2023-02-28T22:34:17.913Z,101530.19
2023-02-28T22:36:45.629Z,101531.72
2023-02-28T22:39:13.696Z,101542.78
2023-02-28T22:41:42.847Z,101542.81
2023-02-28T22:44:12.170Z,101541.47
2023-02-28T22:46:40.184Z,101540.31
2023-02-28T22:49:07.911Z,101537.66
2023-02-28T22:51:36.066Z,101543.41
2023-02-28T22:54:04.350Z,101549.28
2023-02-28T22:56:33.398Z,101546.81
2023-02-28T22:59:03.204Z,101539.88
2023-02-28T23:01:33.130Z,101552.41
2023-02-28T23:04:02.954Z,101558.50
2023-02-28T23:06:33.463Z,101552.66
2023-02-28T23:09:04.602Z,101550.25
2023-02-28T23:11:34.659Z,101554.22
2023-02-28T23:14:04.406Z,101553.50
2023-02-28T23:16:35.656Z,101552.47
2023-02-28T23:19:05.880Z,101551.50
2023-02-28T23:21:34.249Z,101547.31
2023-02-28T23:24:03.687Z,101542.91
2023-02-28T23:26:33.509Z,101556.47
2023-02-28T23:29:02.615Z,101554.00
2023-02-28T23:31:30.539Z,101558.69
2023-02-28T23:33:59.392Z,101564.13
2023-02-28T23:36:27.556Z,101564.63
2023-02-28T23:38:56.841Z,101561.91
2023-02-28T23:41:25.520Z,101563.56
2023-02-28T23:43:54.817Z,101566.72
2023-02-28T23:46:24.542Z,101568.22
2023-02-28T23:48:52.597Z,101567.34
2023-02-28T23:51:23.096Z,101567.53
2023-02-28T23:53:52.934Z,101566.69
2023-02-28T23:56:23.417Z,101568.22
2023-02-28T23:58:51.993Z,101574.25
